sensor_id;sensor_type;location;lat;lon;timestamp;temperature;humidity
5938;DHT22;2994;51.220;4.412;2023-05-20T00:00:22;17.88;54.73
5938;DHT22;2994;51.220;4.412;2023-05-20T00:02:47;17.88;54.48
5938;DHT22;2994;51.220;4.412;2023-05-20T00:05:13;17.85;54.01
5938;DHT22;2994;51.220;4.412;2023-05-20T00:07:38;17.82;54.39
5938;DHT22;2994;51.220;4.412;2023-05-20T00:10:04;17.80;54.69
5938;DHT22;2994;51.220;4.412;2023-05-20T00:12:29;17.78;54.55
5938;DHT22;2994;51.220;4.412;2023-05-20T00:14:55;17.76;53.45
5938;DHT22;2994;51.220;4.412;2023-05-20T00:17:20;17.75;53.54
5938;DHT22;2994;51.220;4.412;2023-05-20T00:19:46;17.75;53.59
5938;DHT22;2994;51.220;4.412;2023-05-20T00:22:11;17.73;53.23
5938;DHT22;2994;51.220;4.412;2023-05-20T00:24:36;17.72;52.70
5938;DHT22;2994;51.220;4.412;2023-05-20T00:27:02;17.68;52.80
5938;DHT22;2994;51.220;4.412;2023-05-20T00:29:27;17.67;52.76
5938;DHT22;2994;51.220;4.412;2023-05-20T00:31:53;17.66;52.35
5938;DHT22;2994;51.220;4.412;2023-05-20T00:34:19;17.63;51.49
5938;DHT22;2994;51.220;4.412;2023-05-20T00:36:44;17.59;51.73
5938;DHT22;2994;51.220;4.412;2023-05-20T00:39:11;17.61;51.82
5938;DHT22;2994;51.220;4.412;2023-05-20T00:41:36;17.55;52.05
5938;DHT22;2994;51.220;4.412;2023-05-20T00:44:02;17.54;51.59
5938;DHT22;2994;51.220;4.412;2023-05-20T00:46:28;17.53;50.58
5938;DHT22;2994;51.220;4.412;2023-05-20T00:48:54;17.51;50.70
5938;DHT22;2994;51.220;4.412;2023-05-20T00:51:20;17.50;50.66
5938;DHT22;2994;51.220;4.412;2023-05-20T00:53:46;17.48;50.23
5938;DHT22;2994;51.220;4.412;2023-05-20T00:56:11;17.45;50.34
5938;DHT22;2994;51.220;4.412;2023-05-20T00:58:37;17.43;50.05
5938;DHT22;2994;51.220;4.412;2023-05-20T01:01:03;17.40;50.55
5938;DHT22;2994;51.220;4.412;2023-05-20T01:03:29;17.37;50.14
5938;DHT22;2994;51.220;4.412;2023-05-20T01:05:54;17.35;50.15
5938;DHT22;2994;51.220;4.412;2023-05-20T01:08:21;17.35;49.83
5938;DHT22;2994;51.220;4.412;2023-05-20T01:10:51;17.32;50.37
5938;DHT22;2994;51.220;4.412;2023-05-20T01:13:20;17.32;50.08
5938;DHT22;2994;51.220;4.412;2023-05-20T01:15:47;17.31;49.80
5938;DHT22;2994;51.220;4.412;2023-05-20T01:18:14;17.30;50.29
5938;DHT22;2994;51.220;4.412;2023-05-20T01:20:49;17.29;50.03
5938;DHT22;2994;51.220;4.412;2023-05-20T01:23:15;17.26;49.96
5938;DHT22;2994;51.220;4.412;2023-05-20T01:25:41;17.22;49.73
5938;DHT22;2994;51.220;4.412;2023-05-20T01:28:07;17.22;49.87
5938;DHT22;2994;51.220;4.412;2023-05-20T01:30:37;17.20;49.63
5938;DHT22;2994;51.220;4.412;2023-05-20T01:33:09;17.20;50.26
5938;DHT22;2994;51.220;4.412;2023-05-20T01:35:35;17.16;50.24
5938;DHT22;2994;51.220;4.412;2023-05-20T01:38:03;17.16;50.26
5938;DHT22;2994;51.220;4.412;2023-05-20T01:40:32;17.17;49.89
5938;DHT22;2994;51.220;4.412;2023-05-20T01:42:58;17.11;49.92
5938;DHT22;2994;51.220;4.412;2023-05-20T01:45:25;17.09;50.42
5938;DHT22;2994;51.220;4.412;2023-05-20T01:47:51;17.06;50.33
5938;DHT22;2994;51.220;4.412;2023-05-20T01:50:17;17.06;50.20
5938;DHT22;2994;51.220;4.412;2023-05-20T01:52:42;17.05;50.32
5938;DHT22;2994;51.220;4.412;2023-05-20T01:55:08;17.04;50.21
5938;DHT22;2994;51.220;4.412;2023-05-20T01:57:34;17.01;50.38
5938;DHT22;2994;51.220;4.412;2023-05-20T01:59:59;16.99;50.59
5938;DHT22;2994;51.220;4.412;2023-05-20T02:02:25;16.98;50.63
5938;DHT22;2994;51.220;4.412;2023-05-20T02:04:52;16.94;50.90
5938;DHT22;2994;51.220;4.412;2023-05-20T02:07:17;16.93;50.76
5938;DHT22;2994;51.220;4.412;2023-05-20T02:09:43;16.91;50.64
5938;DHT22;2994;51.220;4.412;2023-05-20T02:12:09;16.90;50.59
5938;DHT22;2994;51.220;4.412;2023-05-20T02:14:40;16.89;50.82
5938;DHT22;2994;51.220;4.412;2023-05-20T02:17:06;16.89;51.10
5938;DHT22;2994;51.220;4.412;2023-05-20T02:19:31;16.87;51.23
5938;DHT22;2994;51.220;4.412;2023-05-20T02:21:57;16.85;51.42
5938;DHT22;2994;51.220;4.412;2023-05-20T02:24:22;16.84;51.18
5938;DHT22;2994;51.220;4.412;2023-05-20T02:26:47;16.79;51.17
5938;DHT22;2994;51.220;4.412;2023-05-20T02:29:18;16.78;51.50
5938;DHT22;2994;51.220;4.412;2023-05-20T02:31:46;16.75;51.52
5938;DHT22;2994;51.220;4.412;2023-05-20T02:34:12;16.73;51.37
5938;DHT22;2994;51.220;4.412;2023-05-20T02:36:37;16.73;52.27
5938;DHT22;2994;51.220;4.412;2023-05-20T02:39:03;16.67;51.96
5938;DHT22;2994;51.220;4.412;2023-05-20T02:41:28;16.65;52.09
5938;DHT22;2994;51.220;4.412;2023-05-20T02:43:54;16.62;51.97
5938;DHT22;2994;51.220;4.412;2023-05-20T02:46:19;16.62;51.97
5938;DHT22;2994;51.220;4.412;2023-05-20T02:48:45;16.57;52.36
5938;DHT22;2994;51.220;4.412;2023-05-20T02:51:10;16.58;52.59
5938;DHT22;2994;51.220;4.412;2023-05-20T02:53:36;16.55;52.20
5938;DHT22;2994;51.220;4.412;2023-05-20T02:56:04;16.52;52.43
5938;DHT22;2994;51.220;4.412;2023-05-20T02:58:30;16.49;52.19
5938;DHT22;2994;51.220;4.412;2023-05-20T03:00:55;16.46;52.34
5938;DHT22;2994;51.220;4.412;2023-05-20T03:03:23;16.46;52.80
5938;DHT22;2994;51.220;4.412;2023-05-20T03:05:49;16.44;52.43
5938;DHT22;2994;51.220;4.412;2023-05-20T03:08:19;16.40;52.52
5938;DHT22;2994;51.220;4.412;2023-05-20T03:10:44;16.41;52.88
5938;DHT22;2994;51.220;4.412;2023-05-20T03:13:10;16.37;52.65
5938;DHT22;2994;51.220;4.412;2023-05-20T03:15:36;16.33;52.64
5938;DHT22;2994;51.220;4.412;2023-05-20T03:18:02;16.34;52.98
5938;DHT22;2994;51.220;4.412;2023-05-20T03:20:29;16.32;53.15
5938;DHT22;2994;51.220;4.412;2023-05-20T03:22:54;16.29;53.61
5938;DHT22;2994;51.220;4.412;2023-05-20T03:25:21;16.27;54.01
5938;DHT22;2994;51.220;4.412;2023-05-20T03:27:46;16.25;53.28
5938;DHT22;2994;51.220;4.412;2023-05-20T03:30:12;16.26;53.43
5938;DHT22;2994;51.220;4.412;2023-05-20T03:32:38;16.21;53.26
5938;DHT22;2994;51.220;4.412;2023-05-20T03:35:04;16.19;53.47
5938;DHT22;2994;51.220;4.412;2023-05-20T03:37:30;16.19;53.80
5938;DHT22;2994;51.220;4.412;2023-05-20T03:39:55;16.19;53.66
5938;DHT22;2994;51.220;4.412;2023-05-20T03:42:21;16.19;53.88
5938;DHT22;2994;51.220;4.412;2023-05-20T03:44:46;16.18;53.98
5938;DHT22;2994;51.220;4.412;2023-05-20T03:47:12;16.17;53.78
5938;DHT22;2994;51.220;4.412;2023-05-20T03:49:37;16.11;53.72
5938;DHT22;2994;51.220;4.412;2023-05-20T03:52:05;16.06;53.86
5938;DHT22;2994;51.220;4.412;2023-05-20T03:54:31;16.04;54.18
5938;DHT22;2994;51.220;4.412;2023-05-20T03:56:56;16.03;53.86
5938;DHT22;2994;51.220;4.412;2023-05-20T03:59:22;16.02;54.10
5938;DHT22;2994;51.220;4.412;2023-05-20T04:01:47;16.00;54.59
5938;DHT22;2994;51.220;4.412;2023-05-20T04:04:13;16.00;54.33
5938;DHT22;2994;51.220;4.412;2023-05-20T04:06:38;15.98;54.33
5938;DHT22;2994;51.220;4.412;2023-05-20T04:09:04;15.92;54.47
5938;DHT22;2994;51.220;4.412;2023-05-20T04:11:30;15.90;54.55
5938;DHT22;2994;51.220;4.412;2023-05-20T04:13:56;15.90;54.83
5938;DHT22;2994;51.220;4.412;2023-05-20T04:16:23;15.89;54.78
5938;DHT22;2994;51.220;4.412;2023-05-20T04:18:48;15.89;54.71
5938;DHT22;2994;51.220;4.412;2023-05-20T04:21:14;15.87;55.07
5938;DHT22;2994;51.220;4.412;2023-05-20T04:23:40;15.88;54.85
5938;DHT22;2994;51.220;4.412;2023-05-20T04:26:06;15.83;54.87
5938;DHT22;2994;51.220;4.412;2023-05-20T04:28:31;15.81;54.99
5938;DHT22;2994;51.220;4.412;2023-05-20T04:30:58;15.81;55.07
5938;DHT22;2994;51.220;4.412;2023-05-20T04:33:25;15.85;55.06
5938;DHT22;2994;51.220;4.412;2023-05-20T04:35:50;15.82;55.25
5938;DHT22;2994;51.220;4.412;2023-05-20T04:38:16;15.78;55.33
5938;DHT22;2994;51.220;4.412;2023-05-20T04:40:41;15.78;55.84
5938;DHT22;2994;51.220;4.412;2023-05-20T04:43:07;15.80;55.65
5938;DHT22;2994;51.220;4.412;2023-05-20T04:45:33;15.80;55.39
5938;DHT22;2994;51.220;4.412;2023-05-20T04:47:59;15.82;55.78
5938;DHT22;2994;51.220;4.412;2023-05-20T04:50:25;15.87;55.61
5938;DHT22;2994;51.220;4.412;2023-05-20T04:52:51;15.82;55.45
5938;DHT22;2994;51.220;4.412;2023-05-20T04:55:16;15.73;56.20
5938;DHT22;2994;51.220;4.412;2023-05-20T04:57:43;15.80;55.86
5938;DHT22;2994;51.220;4.412;2023-05-20T05:00:10;15.82;55.95
5938;DHT22;2994;51.220;4.412;2023-05-20T05:02:36;15.85;56.24
5938;DHT22;2994;51.220;4.412;2023-05-20T05:05:02;15.84;56.00
5938;DHT22;2994;51.220;4.412;2023-05-20T05:07:28;15.86;56.39
5938;DHT22;2994;51.220;4.412;2023-05-20T05:09:53;15.88;55.78
5938;DHT22;2994;51.220;4.412;2023-05-20T05:12:19;15.86;55.61
5938;DHT22;2994;51.220;4.412;2023-05-20T05:14:44;15.89;55.97
5938;DHT22;2994;51.220;4.412;2023-05-20T05:17:10;15.89;55.71
5938;DHT22;2994;51.220;4.412;2023-05-20T05:19:35;15.89;55.71
5938;DHT22;2994;51.220;4.412;2023-05-20T05:22:00;15.91;56.23
5938;DHT22;2994;51.220;4.412;2023-05-20T05:24:26;15.92;56.07
5938;DHT22;2994;51.220;4.412;2023-05-20T05:26:55;15.96;55.98
5938;DHT22;2994;51.220;4.412;2023-05-20T05:29:20;15.99;55.94
5938;DHT22;2994;51.220;4.412;2023-05-20T05:31:46;16.01;55.68
5938;DHT22;2994;51.220;4.412;2023-05-20T05:34:11;16.04;56.04
5938;DHT22;2994;51.220;4.412;2023-05-20T05:36:39;16.08;55.62
5938;DHT22;2994;51.220;4.412;2023-05-20T05:39:04;16.11;55.47
5938;DHT22;2994;51.220;4.412;2023-05-20T05:41:30;16.12;55.54
5938;DHT22;2994;51.220;4.412;2023-05-20T05:43:57;16.14;55.52
5938;DHT22;2994;51.220;4.412;2023-05-20T05:46:22;16.19;55.97
5938;DHT22;2994;51.220;4.412;2023-05-20T05:48:48;16.21;55.72
5938;DHT22;2994;51.220;4.412;2023-05-20T05:51:15;16.26;55.89
5938;DHT22;2994;51.220;4.412;2023-05-20T05:53:40;16.28;56.23
5938;DHT22;2994;51.220;4.412;2023-05-20T05:56:06;16.31;56.20
5938;DHT22;2994;51.220;4.412;2023-05-20T05:58:32;16.36;55.36
5938;DHT22;2994;51.220;4.412;2023-05-20T06:00:58;16.41;55.13
5938;DHT22;2994;51.220;4.412;2023-05-20T06:03:23;16.43;55.80
5938;DHT22;2994;51.220;4.412;2023-05-20T06:05:49;16.48;55.53
5938;DHT22;2994;51.220;4.412;2023-05-20T06:08:14;16.52;55.67
5938;DHT22;2994;51.220;4.412;2023-05-20T06:10:40;16.55;55.55
5938;DHT22;2994;51.220;4.412;2023-05-20T06:13:05;16.60;55.28
5938;DHT22;2994;51.220;4.412;2023-05-20T06:15:31;16.62;55.09
5938;DHT22;2994;51.220;4.412;2023-05-20T06:17:56;16.67;55.04
5938;DHT22;2994;51.220;4.412;2023-05-20T06:20:22;16.71;54.61
5938;DHT22;2994;51.220;4.412;2023-05-20T06:22:47;16.76;55.33
5938;DHT22;2994;51.220;4.412;2023-05-20T06:25:13;16.78;55.20
5938;DHT22;2994;51.220;4.412;2023-05-20T06:27:38;16.94;54.03
5938;DHT22;2994;51.220;4.412;2023-05-20T06:30:04;16.86;55.39
5938;DHT22;2994;51.220;4.412;2023-05-20T06:32:30;16.89;54.87
5938;DHT22;2994;51.220;4.412;2023-05-20T06:34:55;16.94;55.07
5938;DHT22;2994;51.220;4.412;2023-05-20T06:37:21;16.98;55.02
5938;DHT22;2994;51.220;4.412;2023-05-20T06:39:49;17.04;54.20
5938;DHT22;2994;51.220;4.412;2023-05-20T06:42:20;17.05;55.04
5938;DHT22;2994;51.220;4.412;2023-05-20T06:44:45;17.10;54.66
5938;DHT22;2994;51.220;4.412;2023-05-20T06:47:13;17.14;55.34
5938;DHT22;2994;51.220;4.412;2023-05-20T06:49:41;17.19;54.39
5938;DHT22;2994;51.220;4.412;2023-05-20T06:52:06;17.23;53.83
5938;DHT22;2994;51.220;4.412;2023-05-20T06:54:32;17.28;54.38
5938;DHT22;2994;51.220;4.412;2023-05-20T06:57:00;17.31;54.92
5938;DHT22;2994;51.220;4.412;2023-05-20T06:59:25;17.36;53.39
5938;DHT22;2994;51.220;4.412;2023-05-20T07:01:51;17.41;53.65
5938;DHT22;2994;51.220;4.412;2023-05-20T07:04:16;17.46;54.04
5938;DHT22;2994;51.220;4.412;2023-05-20T07:06:41;17.48;54.37
5938;DHT22;2994;51.220;4.412;2023-05-20T07:09:07;17.53;54.04
5938;DHT22;2994;51.220;4.412;2023-05-20T07:11:32;17.59;54.36
5938;DHT22;2994;51.220;4.412;2023-05-20T07:13:58;17.64;54.40
5938;DHT22;2994;51.220;4.412;2023-05-20T07:16:23;17.70;53.40
5938;DHT22;2994;51.220;4.412;2023-05-20T07:18:49;17.77;54.13
5938;DHT22;2994;51.220;4.412;2023-05-20T07:21:14;17.79;54.94
5938;DHT22;2994;51.220;4.412;2023-05-20T07:23:40;17.90;54.14
5938;DHT22;2994;51.220;4.412;2023-05-20T07:26:05;17.92;54.50
5938;DHT22;2994;51.220;4.412;2023-05-20T07:28:31;17.98;54.17
5938;DHT22;2994;51.220;4.412;2023-05-20T07:30:56;18.03;54.46
5938;DHT22;2994;51.220;4.412;2023-05-20T07:33:22;18.11;53.12
5938;DHT22;2994;51.220;4.412;2023-05-20T07:35:48;18.13;53.59
5938;DHT22;2994;51.220;4.412;2023-05-20T07:38:13;18.22;53.63
5938;DHT22;2994;51.220;4.412;2023-05-20T07:40:39;18.29;53.30
5938;DHT22;2994;51.220;4.412;2023-05-20T07:43:08;18.36;53.83
5938;DHT22;2994;51.220;4.412;2023-05-20T07:45:35;18.41;53.08
5938;DHT22;2994;51.220;4.412;2023-05-20T07:48:03;18.44;52.07
5938;DHT22;2994;51.220;4.412;2023-05-20T07:50:29;18.44;52.27
5938;DHT22;2994;51.220;4.412;2023-05-20T07:52:55;18.59;52.07
5938;DHT22;2994;51.220;4.412;2023-05-20T07:55:20;18.71;51.42
5938;DHT22;2994;51.220;4.412;2023-05-20T07:57:46;18.86;50.95
5938;DHT22;2994;51.220;4.412;2023-05-20T08:00:11;18.99;50.44
5938;DHT22;2994;51.220;4.412;2023-05-20T08:02:38;19.10;49.82
5938;DHT22;2994;51.220;4.412;2023-05-20T08:05:04;19.17;49.99
5938;DHT22;2994;51.220;4.412;2023-05-20T08:07:29;19.29;50.76
5938;DHT22;2994;51.220;4.412;2023-05-20T08:09:56;19.36;48.80
5938;DHT22;2994;51.220;4.412;2023-05-20T08:12:21;19.40;48.88
5938;DHT22;2994;51.220;4.412;2023-05-20T08:14:47;19.47;47.89
5938;DHT22;2994;51.220;4.412;2023-05-20T08:17:12;19.60;47.73
5938;DHT22;2994;51.220;4.412;2023-05-20T08:19:38;19.69;47.77
5938;DHT22;2994;51.220;4.412;2023-05-20T08:22:03;19.82;47.46
5938;DHT22;2994;51.220;4.412;2023-05-20T08:24:30;19.96;47.16
5938;DHT22;2994;51.220;4.412;2023-05-20T08:26:56;19.91;48.09
5938;DHT22;2994;51.220;4.412;2023-05-20T08:29:21;20.00;46.70
5938;DHT22;2994;51.220;4.412;2023-05-20T08:31:47;20.14;46.02
5938;DHT22;2994;51.220;4.412;2023-05-20T08:34:12;20.16;46.60
5938;DHT22;2994;51.220;4.412;2023-05-20T08:36:38;20.35;45.20
5938;DHT22;2994;51.220;4.412;2023-05-20T08:39:04;20.41;44.66
5938;DHT22;2994;51.220;4.412;2023-05-20T08:41:29;20.51;46.27
5938;DHT22;2994;51.220;4.412;2023-05-20T08:43:56;20.64;42.90
5938;DHT22;2994;51.220;4.412;2023-05-20T08:46:23;20.51;43.45
5938;DHT22;2994;51.220;4.412;2023-05-20T08:48:49;20.77;42.48
5938;DHT22;2994;51.220;4.412;2023-05-20T08:51:17;20.86;40.88
5938;DHT22;2994;51.220;4.412;2023-05-20T08:53:45;20.90;41.36
5938;DHT22;2994;51.220;4.412;2023-05-20T08:56:11;21.00;40.48
5938;DHT22;2994;51.220;4.412;2023-05-20T08:58:37;21.07;40.94
5938;DHT22;2994;51.220;4.412;2023-05-20T09:01:02;21.18;41.33
5938;DHT22;2994;51.220;4.412;2023-05-20T09:03:28;21.17;41.10
5938;DHT22;2994;51.220;4.412;2023-05-20T09:06:02;21.06;41.93
5938;DHT22;2994;51.220;4.412;2023-05-20T09:08:29;21.20;40.63
5938;DHT22;2994;51.220;4.412;2023-05-20T09:10:55;21.24;39.68
5938;DHT22;2994;51.220;4.412;2023-05-20T09:13:22;21.35;39.58
5938;DHT22;2994;51.220;4.412;2023-05-20T09:15:48;21.45;39.91
5938;DHT22;2994;51.220;4.412;2023-05-20T09:18:13;21.33;40.10
5938;DHT22;2994;51.220;4.412;2023-05-20T09:20:39;21.33;38.87
5938;DHT22;2994;51.220;4.412;2023-05-20T09:23:07;21.29;39.43
5938;DHT22;2994;51.220;4.412;2023-05-20T09:25:33;21.63;37.87
5938;DHT22;2994;51.220;4.412;2023-05-20T09:27:59;21.64;38.84
5938;DHT22;2994;51.220;4.412;2023-05-20T09:30:24;21.02;39.68
5938;DHT22;2994;51.220;4.412;2023-05-20T09:32:58;21.34;39.65
5938;DHT22;2994;51.220;4.412;2023-05-20T09:35:25;21.69;38.59
5938;DHT22;2994;51.220;4.412;2023-05-20T09:37:52;21.72;39.75
5938;DHT22;2994;51.220;4.412;2023-05-20T09:40:22;21.91;38.29
5938;DHT22;2994;51.220;4.412;2023-05-20T09:42:56;21.99;36.81
5938;DHT22;2994;51.220;4.412;2023-05-20T09:45:24;21.87;37.56
5938;DHT22;2994;51.220;4.412;2023-05-20T09:47:53;22.06;37.18
5938;DHT22;2994;51.220;4.412;2023-05-20T09:50:20;22.21;37.69
5938;DHT22;2994;51.220;4.412;2023-05-20T09:52:47;22.04;37.98
5938;DHT22;2994;51.220;4.412;2023-05-20T09:55:15;22.44;36.16
5938;DHT22;2994;51.220;4.412;2023-05-20T09:57:41;22.48;36.66
5938;DHT22;2994;51.220;4.412;2023-05-20T10:00:07;22.18;37.17
5938;DHT22;2994;51.220;4.412;2023-05-20T10:02:34;22.22;36.52
5938;DHT22;2994;51.220;4.412;2023-05-20T10:05:03;22.21;35.96
5938;DHT22;2994;51.220;4.412;2023-05-20T10:16:13;22.77;36.61
5938;DHT22;2994;51.220;4.412;2023-05-20T10:21:20;22.79;35.06
5938;DHT22;2994;51.220;4.412;2023-05-20T10:23:49;22.94;35.50
5938;DHT22;2994;51.220;4.412;2023-05-20T10:26:15;22.95;36.62
5938;DHT22;2994;51.220;4.412;2023-05-20T10:28:40;22.67;36.49
5938;DHT22;2994;51.220;4.412;2023-05-20T10:31:17;22.95;34.99
5938;DHT22;2994;51.220;4.412;2023-05-20T10:33:44;22.98;34.93
5938;DHT22;2994;51.220;4.412;2023-05-20T10:36:10;23.12;35.85
5938;DHT22;2994;51.220;4.412;2023-05-20T10:38:57;22.88;36.26
5938;DHT22;2994;51.220;4.412;2023-05-20T10:41:24;23.05;34.89
5938;DHT22;2994;51.220;4.412;2023-05-20T10:44:05;23.27;34.14
5938;DHT22;2994;51.220;4.412;2023-05-20T10:46:32;23.30;34.33
5938;DHT22;2994;51.220;4.412;2023-05-20T10:48:58;23.14;35.76
5938;DHT22;2994;51.220;4.412;2023-05-20T10:51:27;23.21;35.89
5938;DHT22;2994;51.220;4.412;2023-05-20T10:53:54;23.09;36.26
5938;DHT22;2994;51.220;4.412;2023-05-20T10:56:22;23.49;33.99
5938;DHT22;2994;51.220;4.412;2023-05-20T10:58:48;23.49;34.86
5938;DHT22;2994;51.220;4.412;2023-05-20T11:01:15;23.09;37.07
5938;DHT22;2994;51.220;4.412;2023-05-20T11:03:42;23.39;36.56
5938;DHT22;2994;51.220;4.412;2023-05-20T11:06:24;23.52;34.92
5938;DHT22;2994;51.220;4.412;2023-05-20T11:08:50;23.43;36.30
5938;DHT22;2994;51.220;4.412;2023-05-20T11:11:15;23.68;33.96
5938;DHT22;2994;51.220;4.412;2023-05-20T11:13:41;23.84;34.81
5938;DHT22;2994;51.220;4.412;2023-05-20T11:16:06;23.81;34.59
5938;DHT22;2994;51.220;4.412;2023-05-20T11:18:32;23.71;34.92
5938;DHT22;2994;51.220;4.412;2023-05-20T11:21:01;23.86;33.93
5938;DHT22;2994;51.220;4.412;2023-05-20T11:23:27;23.85;34.66
5938;DHT22;2994;51.220;4.412;2023-05-20T11:25:54;23.87;34.53
5938;DHT22;2994;51.220;4.412;2023-05-20T11:28:21;23.98;33.86
5938;DHT22;2994;51.220;4.412;2023-05-20T11:30:47;23.84;33.86
5938;DHT22;2994;51.220;4.412;2023-05-20T11:33:14;24.02;34.25
5938;DHT22;2994;51.220;4.412;2023-05-20T11:35:48;24.13;34.34
5938;DHT22;2994;51.220;4.412;2023-05-20T11:38:14;24.12;36.11
5938;DHT22;2994;51.220;4.412;2023-05-20T11:40:51;24.23;36.67
5938;DHT22;2994;51.220;4.412;2023-05-20T11:43:17;24.02;34.68
5938;DHT22;2994;51.220;4.412;2023-05-20T11:45:47;24.09;35.06
5938;DHT22;2994;51.220;4.412;2023-05-20T11:48:12;24.21;34.82
5938;DHT22;2994;51.220;4.412;2023-05-20T11:50:44;24.36;33.16
5938;DHT22;2994;51.220;4.412;2023-05-20T11:53:14;24.11;36.27
5938;DHT22;2994;51.220;4.412;2023-05-20T11:55:52;24.30;36.11
5938;DHT22;2994;51.220;4.412;2023-05-20T11:58:20;24.54;35.37
5938;DHT22;2994;51.220;4.412;2023-05-20T12:00:45;24.84;32.65
5938;DHT22;2994;51.220;4.412;2023-05-20T12:03:11;24.92;35.20
5938;DHT22;2994;51.220;4.412;2023-05-20T12:05:37;25.12;32.18
5938;DHT22;2994;51.220;4.412;2023-05-20T12:08:03;25.10;34.16
5938;DHT22;2994;51.220;4.412;2023-05-20T12:10:29;24.74;32.93
5938;DHT22;2994;51.220;4.412;2023-05-20T12:12:55;24.79;35.32
5938;DHT22;2994;51.220;4.412;2023-05-20T12:15:21;24.78;35.15
5938;DHT22;2994;51.220;4.412;2023-05-20T12:17:51;25.05;33.45
5938;DHT22;2994;51.220;4.412;2023-05-20T12:20:20;24.99;34.88
5938;DHT22;2994;51.220;4.412;2023-05-20T12:22:46;24.90;32.58
5938;DHT22;2994;51.220;4.412;2023-05-20T12:25:12;25.24;33.27
5938;DHT22;2994;51.220;4.412;2023-05-20T12:27:40;25.31;32.64
5938;DHT22;2994;51.220;4.412;2023-05-20T12:30:06;25.39;31.31
5938;DHT22;2994;51.220;4.412;2023-05-20T12:32:34;25.63;31.91
5938;DHT22;2994;51.220;4.412;2023-05-20T12:34:59;25.89;32.24
5938;DHT22;2994;51.220;4.412;2023-05-20T12:37:25;25.88;31.56
5938;DHT22;2994;51.220;4.412;2023-05-20T12:39:51;25.77;33.32
5938;DHT22;2994;51.220;4.412;2023-05-20T12:42:19;26.07;33.29
5938;DHT22;2994;51.220;4.412;2023-05-20T12:44:45;26.21;31.96
5938;DHT22;2994;51.220;4.412;2023-05-20T12:47:11;26.30;29.93
5938;DHT22;2994;51.220;4.412;2023-05-20T12:49:36;25.75;32.74
5938;DHT22;2994;51.220;4.412;2023-05-20T12:52:01;25.96;32.38
5938;DHT22;2994;51.220;4.412;2023-05-20T12:54:27;26.19;31.12
5938;DHT22;2994;51.220;4.412;2023-05-20T12:56:56;26.02;31.93
5938;DHT22;2994;51.220;4.412;2023-05-20T12:59:21;25.65;32.57
5938;DHT22;2994;51.220;4.412;2023-05-20T13:01:47;25.54;31.49
5938;DHT22;2994;51.220;4.412;2023-05-20T13:04:12;25.69;33.64
5938;DHT22;2994;51.220;4.412;2023-05-20T13:06:38;26.24;32.01
5938;DHT22;2994;51.220;4.412;2023-05-20T13:09:03;26.35;32.29
5938;DHT22;2994;51.220;4.412;2023-05-20T13:11:28;26.48;31.22
5938;DHT22;2994;51.220;4.412;2023-05-20T13:13:54;26.50;30.38
5938;DHT22;2994;51.220;4.412;2023-05-20T13:16:24;25.94;31.95
5938;DHT22;2994;51.220;4.412;2023-05-20T13:18:49;25.79;31.48
5938;DHT22;2994;51.220;4.412;2023-05-20T13:21:15;26.21;32.88
5938;DHT22;2994;51.220;4.412;2023-05-20T13:23:41;26.62;29.76
5938;DHT22;2994;51.220;4.412;2023-05-20T13:26:07;26.77;32.09
5938;DHT22;2994;51.220;4.412;2023-05-20T13:28:33;27.07;31.94
5938;DHT22;2994;51.220;4.412;2023-05-20T13:31:00;26.68;33.21
5938;DHT22;2994;51.220;4.412;2023-05-20T13:33:26;26.47;32.29
5938;DHT22;2994;51.220;4.412;2023-05-20T13:35:51;26.86;32.23
5938;DHT22;2994;51.220;4.412;2023-05-20T13:38:17;26.93;31.57
5938;DHT22;2994;51.220;4.412;2023-05-20T13:40:42;26.92;30.17
5938;DHT22;2994;51.220;4.412;2023-05-20T13:43:08;26.54;31.03
5938;DHT22;2994;51.220;4.412;2023-05-20T13:45:33;26.18;32.71
5938;DHT22;2994;51.220;4.412;2023-05-20T13:47:59;26.33;32.33
5938;DHT22;2994;51.220;4.412;2023-05-20T13:50:25;26.99;30.10
5938;DHT22;2994;51.220;4.412;2023-05-20T13:52:50;27.34;31.96
5938;DHT22;2994;51.220;4.412;2023-05-20T13:55:16;27.15;30.30
5938;DHT22;2994;51.220;4.412;2023-05-20T13:57:42;26.73;31.57
5938;DHT22;2994;51.220;4.412;2023-05-20T14:00:08;27.02;32.46
5938;DHT22;2994;51.220;4.412;2023-05-20T14:02:34;27.40;29.59
5938;DHT22;2994;51.220;4.412;2023-05-20T14:05:00;27.14;29.40
5938;DHT22;2994;51.220;4.412;2023-05-20T14:07:26;26.78;29.81
5938;DHT22;2994;51.220;4.412;2023-05-20T14:09:52;26.49;30.90
5938;DHT22;2994;51.220;4.412;2023-05-20T14:12:17;26.64;30.18
5938;DHT22;2994;51.220;4.412;2023-05-20T14:14:42;26.86;29.87
5938;DHT22;2994;51.220;4.412;2023-05-20T14:17:08;27.32;31.45
5938;DHT22;2994;51.220;4.412;2023-05-20T14:19:33;27.74;29.01
5938;DHT22;2994;51.220;4.412;2023-05-20T14:21:59;27.61;29.41
5938;DHT22;2994;51.220;4.412;2023-05-20T14:24:26;27.08;29.26
5938;DHT22;2994;51.220;4.412;2023-05-20T14:26:51;26.55;32.35
5938;DHT22;2994;51.220;4.412;2023-05-20T14:29:17;26.31;32.37
5938;DHT22;2994;51.220;4.412;2023-05-20T14:31:42;26.56;31.42
5938;DHT22;2994;51.220;4.412;2023-05-20T14:34:08;26.73;30.06
5938;DHT22;2994;51.220;4.412;2023-05-20T14:36:33;26.85;30.77
5938;DHT22;2994;51.220;4.412;2023-05-20T14:38:59;26.65;31.56
5938;DHT22;2994;51.220;4.412;2023-05-20T14:41:24;26.38;32.73
5938;DHT22;2994;51.220;4.412;2023-05-20T14:43:50;26.07;34.12
5938;DHT22;2994;51.220;4.412;2023-05-20T14:46:16;25.99;31.85
5938;DHT22;2994;51.220;4.412;2023-05-20T14:48:42;25.86;31.92
5938;DHT22;2994;51.220;4.412;2023-05-20T14:51:07;26.45;32.37
5938;DHT22;2994;51.220;4.412;2023-05-20T14:53:33;27.32;31.09
5938;DHT22;2994;51.220;4.412;2023-05-20T14:55:58;26.95;31.86
5938;DHT22;2994;51.220;4.412;2023-05-20T14:58:24;26.96;30.02
5938;DHT22;2994;51.220;4.412;2023-05-20T15:00:52;26.81;32.41
5938;DHT22;2994;51.220;4.412;2023-05-20T15:03:17;26.71;32.70
5938;DHT22;2994;51.220;4.412;2023-05-20T15:05:43;26.83;32.72
5938;DHT22;2994;51.220;4.412;2023-05-20T15:08:09;27.29;31.48
5938;DHT22;2994;51.220;4.412;2023-05-20T15:10:34;27.19;29.60
5938;DHT22;2994;51.220;4.412;2023-05-20T15:13:00;26.92;32.94
5938;DHT22;2994;51.220;4.412;2023-05-20T15:15:26;26.96;31.43
5938;DHT22;2994;51.220;4.412;2023-05-20T15:17:51;27.01;31.24
5938;DHT22;2994;51.220;4.412;2023-05-20T15:20:16;26.71;30.43
5938;DHT22;2994;51.220;4.412;2023-05-20T15:22:42;26.75;32.51
5938;DHT22;2994;51.220;4.412;2023-05-20T15:25:12;27.27;28.84
5938;DHT22;2994;51.220;4.412;2023-05-20T15:27:39;26.87;30.11
5938;DHT22;2994;51.220;4.412;2023-05-20T15:30:06;30.05;26.05
5938;DHT22;2994;51.220;4.412;2023-05-20T15:32:32;28.21;28.52
5938;DHT22;2994;51.220;4.412;2023-05-20T15:34:58;27.79;29.39
5938;DHT22;2994;51.220;4.412;2023-05-20T15:37:23;27.34;31.04
5938;DHT22;2994;51.220;4.412;2023-05-20T15:39:48;26.97;30.25
5938;DHT22;2994;51.220;4.412;2023-05-20T15:42:14;26.82;30.97
5938;DHT22;2994;51.220;4.412;2023-05-20T15:44:43;26.66;30.13
5938;DHT22;2994;51.220;4.412;2023-05-20T15:47:08;26.45;32.04
5938;DHT22;2994;51.220;4.412;2023-05-20T15:49:34;26.33;31.47
5938;DHT22;2994;51.220;4.412;2023-05-20T15:51:59;31.63;25.93
5938;DHT22;2994;51.220;4.412;2023-05-20T15:54:25;38.22;18.38
5938;DHT22;2994;51.220;4.412;2023-05-20T15:56:51;39.79;14.28
5938;DHT22;2994;51.220;4.412;2023-05-20T15:59:16;37.06;15.98
5938;DHT22;2994;51.220;4.412;2023-05-20T16:01:41;35.97;17.12
5938;DHT22;2994;51.220;4.412;2023-05-20T16:04:07;34.16;19.05
5938;DHT22;2994;51.220;4.412;2023-05-20T16:06:32;33.20;19.82